Time;durP1;ratioP1;P1;durP2;ratioP2;P2;SDS_P1;SDS_P2;PMS_P1;PMS_P2;Temp;Humidity;BMP_temperature;BMP_pressure;BME280_temperature;BME280_humidity;BME280_pressure;Samples;Min_cycle;Max_cycle;Signal;HPM_P1;HPM_P2
2022/11/11 00:01:10;;;;;;;5.28;0.85;;;;;;;7.88;99.96;102077.91;5015207;28;20033;-76
2022/11/11 00:03:36;;;;;;;5.03;1.15;;;;;;;7.85;100.00;102081.31;5023600;28;20046;-79
2022/11/11 00:06:12;;;;;;;5.63;1.33;;;;;;;7.87;100.00;102091.78;5012093;28;20038;-76
2022/11/11 00:08:39;;;;;;;1.73;0.93;;;;;;;7.90;100.00;102092.75;5006403;28;20430;-77
2022/11/11 00:11:10;;;;;;;5.25;1.20;;;;;;;7.88;99.76;102089.22;5000064;28;20049;-76
2022/11/11 00:13:38;;;;;;;3.55;1.25;;;;;;;7.88;99.93;102085.75;5004861;28;20042;-76
2022/11/11 00:16:12;;;;;;;2.95;0.90;;;;;;;7.91;99.47;102088.41;5021835;28;20449;-75
2022/11/11 00:27:13;;;;;;;5.18;1.02;;;;;;;8.00;98.36;102091.25;5020718;28;20389;-79
2022/11/11 00:29:41;;;;;;;4.95;0.80;;;;;;;7.97;98.32;102090.31;5023643;28;20069;-76
2022/11/11 00:32:26;;;;;;;4.03;0.80;;;;;;;7.97;98.36;102100.75;5034293;28;20041;-77
2022/11/11 00:37:41;;;;;;;4.53;0.68;;;;;;;7.89;98.74;102082.28;5002288;28;20049;-77
2022/11/11 00:40:09;;;;;;;1.92;0.80;;;;;;;7.89;98.66;102085.78;5038659;28;20117;-77
2022/11/11 00:42:36;;;;;;;2.05;1.20;;;;;;;7.91;98.29;102088.41;5021188;28;20415;-75
2022/11/11 00:45:04;;;;;;;1.75;0.90;;;;;;;7.88;98.32;102088.34;5023410;28;20060;-75
2022/11/11 00:53:12;;;;;;;1.23;1.15;;;;;;;7.76;99.63;102100.22;5020688;28;20029;-75
2022/11/11 00:55:39;;;;;;;3.72;1.15;;;;;;;7.81;98.64;102102.06;5037696;28;20041;-77
2022/11/11 00:58:06;;;;;;;2.70;0.90;;;;;;;7.76;98.76;102099.34;5022866;28;20076;-77
2022/11/11 01:00:33;;;;;;;2.90;1.10;;;;;;;7.72;99.12;102100.13;5022210;28;20049;-75
2022/11/11 01:02:59;;;;;;;4.75;1.10;;;;;;;7.66;99.00;102102.56;5001441;28;20052;-77
2022/11/11 01:05:27;;;;;;;3.15;1.23;;;;;;;7.61;99.74;102108.53;5012623;28;20083;-75
2022/11/11 01:07:54;;;;;;;6.90;1.70;;;;;;;7.54;99.68;102113.53;5025817;28;20044;-76
2022/11/11 01:10:45;;;;;;;4.10;1.33;;;;;;;7.53;100.00;102109.16;5018720;28;20045;-78
2022/11/11 01:13:23;;;;;;;3.63;2.50;;;;;;;7.52;100.00;102123.03;5006282;28;20056;-77
2022/11/11 01:15:53;;;;;;;5.35;1.35;;;;;;;7.54;100.00;102124.81;5039105;28;20115;-75
2022/11/11 01:18:23;;;;;;;5.25;0.82;;;;;;;7.55;99.78;102117.91;5034930;28;20050;-75
2022/11/11 01:21:10;;;;;;;1.58;1.20;;;;;;;7.55;100.00;102113.56;5031548;28;20041;-78
2022/11/11 01:23:39;;;;;;;6.85;1.83;;;;;;;7.56;100.00;102124.84;5000055;28;20046;-76
2022/11/11 01:26:14;;;;;;;3.03;1.30;;;;;;;7.49;99.80;102120.34;5009648;28;20053;-77
2022/11/11 01:28:41;;;;;;;1.02;0.80;;;;;;;7.45;100.00;102116.75;5013611;28;20037;-75
2022/11/11 01:31:12;;;;;;;1.25;0.73;;;;;;;7.41;100.00;102120.13;5015383;28;20061;-77
2022/11/11 01:33:39;;;;;;;4.65;1.02;;;;;;;7.31;100.00;102121.56;4999299;28;20388;-76
2022/11/11 01:36:13;;;;;;;4.40;0.98;;;;;;;7.28;100.00;102114.56;5012854;28;20072;-77
2022/11/11 01:38:41;;;;;;;4.32;0.95;;;;;;;7.29;100.00;102113.72;5011492;28;20117;-75
2022/11/11 01:43:56;;;;;;;5.95;0.90;;;;;;;7.27;100.00;102123.25;5030129;28;20048;-77
2022/11/11 01:46:52;;;;;;;2.28;0.98;;;;;;;7.25;100.00;102119.69;5027587;28;20100;-76
2022/11/11 01:49:44;;;;;;;3.80;0.93;;;;;;;7.31;100.00;102111.16;5030073;28;20156;-75
2022/11/11 01:52:35;;;;;;;1.75;1.15;;;;;;;7.32;100.00;102107.72;5031016;28;20721;-81
2022/11/11 01:55:08;;;;;;;3.45;0.73;;;;;;;7.27;100.00;102102.41;5015181;28;20134;-76
2022/11/11 01:57:51;;;;;;;1.98;0.90;;;;;;;7.31;100.00;102108.56;5003619;28;20049;-78
2022/11/11 02:00:20;;;;;;;7.38;1.73;;;;;;;7.29;100.00;102107.66;5017782;28;20045;-78
2022/11/11 02:02:59;;;;;;;1.63;0.88;;;;;;;7.29;100.00;102111.13;5018341;28;20042;-80
2022/11/11 02:05:42;;;;;;;1.77;1.05;;;;;;;7.33;100.00;102100.81;5035094;28;20053;-77
2022/11/11 02:08:31;;;;;;;2.97;0.90;;;;;;;7.33;100.00;102086.03;4999199;28;20057;-76
2022/11/11 02:11:03;;;;;;;5.18;0.90;;;;;;;7.38;100.00;102086.16;5021496;28;20091;-76
2022/11/11 02:16:16;;;;;;;3.08;0.70;;;;;;;7.35;100.00;102099.97;5032908;28;20041;-77
2022/11/11 02:18:43;;;;;;;5.03;1.08;;;;;;;7.36;100.00;102106.09;5007165;28;20495;-75
2022/11/11 02:21:22;;;;;;;1.55;0.90;;;;;;;7.39;100.00;102100.94;5017360;28;20397;-77
2022/11/11 02:24:05;;;;;;;2.90;1.35;;;;;;;7.38;100.00;102099.19;4999786;28;20535;-80
2022/11/11 02:26:35;;;;;;;2.70;1.05;;;;;;;7.34;100.00;102106.06;4996607;28;20045;-76
2022/11/11 02:29:03;;;;;;;4.22;1.55;;;;;;;7.32;100.00;102109.47;5005635;28;20041;-75
2022/11/11 02:31:31;;;;;;;2.35;1.13;;;;;;;7.26;100.00;102112.75;4998161;28;20037;-77
2022/11/11 02:33:58;;;;;;;3.47;1.23;;;;;;;7.22;100.00;102116.13;5020349;28;20473;-79
2022/11/11 02:36:25;;;;;;;3.05;0.80;;;;;;;7.22;100.00;102130.03;5012524;28;20227;-75
2022/11/11 02:38:52;;;;;;;0.77;0.70;;;;;;;7.22;100.00;102137.84;5019890;28;20457;-77
2022/11/11 02:44:02;;;;;;;4.95;0.57;;;;;;;7.23;100.00;102138.72;5002662;28;20146;-76
2022/11/11 02:46:29;;;;;;;0.85;0.73;;;;;;;7.25;100.00;102134.44;5012385;28;20042;-78
2022/11/11 02:48:56;;;;;;;2.65;1.10;;;;;;;7.31;100.00;102139.81;5030345;28;20953;-79
2022/11/11 02:51:22;;;;;;;2.97;0.85;;;;;;;7.29;100.00;102137.16;5021090;28;20115;-77
2022/11/11 02:53:49;;;;;;;3.58;1.13;;;;;;;7.26;100.00;102134.50;5023144;28;20045;-79
2022/11/11 02:57:05;;;;;;;4.47;0.65;;;;;;;7.28;100.00;102134.53;5028491;28;20059;-77
2022/11/11 02:59:02;;;;;;;4.35;0.82;;;;;;;7.26;100.00;102136.19;5027940;28;20049;-78
2022/11/11 03:01:28;;;;;;;2.75;0.85;;;;;;;7.27;100.00;102135.34;4991154;28;20041;-78
2022/11/11 03:03:55;;;;;;;3.10;0.90;;;;;;;7.29;99.95;102121.53;5014827;28;20053;-76
2022/11/11 03:06:21;;;;;;;1.85;1.10;;;;;;;7.28;100.00;102124.97;5025549;28;20129;-75
2022/11/11 03:08:48;;;;;;;0.73;0.60;;;;;;;7.26;100.00;102124.06;5009534;28;20045;-75
2022/11/11 03:11:14;;;;;;;5.30;0.98;;;;;;;7.22;100.00;102119.63;5042372;28;20056;-76
2022/11/11 03:13:41;;;;;;;3.65;0.98;;;;;;;7.20;100.00;102117.81;5011134;28;20069;-78
2022/11/11 03:17:38;;;;;;;4.90;0.93;;;;;;;7.18;100.00;102122.94;4990519;28;20052;-76
2022/11/11 03:18:53;;;;;;;1.60;0.80;;;;;;;7.18;100.00;102103.84;5024288;28;20049;-77
2022/11/11 03:21:20;;;;;;;3.00;1.08;;;;;;;7.15;100.00;102104.63;5030988;28;20076;-76
2022/11/11 03:23:46;;;;;;;4.47;1.00;;;;;;;7.16;100.00;102113.31;5012903;28;20045;-85
2022/11/11 03:26:14;;;;;;;4.22;1.25;;;;;;;7.12;100.00;102121.06;5023161;28;20045;-80
2022/11/11 03:28:41;;;;;;;5.82;2.03;;;;;;;7.11;100.00;102121.91;5008299;28;20057;-77
2022/11/11 03:31:07;;;;;;;1.92;1.05;;;;;;;7.11;100.00;102115.81;4996543;28;20049;-76
2022/11/11 03:33:34;;;;;;;3.08;1.08;;;;;;;7.12;100.00;102113.25;5012221;28;20376;-76
2022/11/11 03:36:00;;;;;;;5.38;1.20;;;;;;;7.06;100.00;102113.06;5011920;28;20061;-76
2022/11/11 03:38:26;;;;;;;3.15;1.83;;;;;;;7.05;100.00;102107.81;5013892;28;20048;-77
2022/11/11 03:40:56;;;;;;;0.90;0.68;;;;;;;7.09;100.00;102105.34;5040544;28;20059;-77
2022/11/11 03:43:26;;;;;;;1.20;0.75;;;;;;;7.13;100.00;102103.69;5016721;28;20306;-78
2022/11/11 03:45:56;;;;;;;3.83;0.80;;;;;;;7.14;99.97;102102.88;5002642;28;20050;-81
2022/11/11 03:48:24;;;;;;;3.72;1.23;;;;;;;7.16;100.00;102098.59;5014098;28;20045;-76
2022/11/11 03:50:51;;;;;;;2.17;1.05;;;;;;;7.27;99.39;102104.09;5011718;28;20045;-77
2022/11/11 03:53:19;;;;;;;3.95;1.48;;;;;;;7.27;98.88;102105.00;5024991;28;20101;-79
2022/11/11 03:55:46;;;;;;;1.17;0.80;;;;;;;7.32;98.47;102107.72;5023946;28;20313;-80
2022/11/11 03:58:13;;;;;;;10.10;1.05;;;;;;;7.33;98.14;102103.41;5022594;28;20054;-77
2022/11/11 04:00:42;;;;;;;1.88;1.13;;;;;;;7.34;98.05;102110.38;5011966;28;20045;-79
2022/11/11 04:11:40;;;;;;;2.42;1.02;;;;;;;7.43;96.86;102111.50;4981297;28;20364;-76
2022/11/11 04:16:55;;;;;;;2.25;0.80;;;;;;;7.48;96.18;102123.78;5004033;28;20037;-77
2022/11/11 04:22:06;;;;;;;3.38;0.90;;;;;;;7.43;96.63;102115.81;5014666;28;20045;-79
2022/11/11 04:27:18;;;;;;;;;;;;;;;7.44;96.50;102122.81;5009171;28;20048;-77
2022/11/11 04:29:46;;;;;;;1.05;0.93;;;;;;;7.44;96.24;102128.91;5037764;28;20019;-76
2022/11/11 04:35:04;;;;;;;1.15;0.90;;;;;;;7.38;96.59;102140.88;5001049;28;20048;-77
2022/11/11 04:37:33;;;;;;;1.83;1.70;;;;;;;7.29;97.18;102129.34;5020620;28;20437;-76
2022/11/11 04:42:43;;;;;;;2.05;1.20;;;;;;;7.19;98.23;102131.66;5032210;28;20083;-78
2022/11/11 04:48:05;;;;;;;2.75;1.35;;;;;;;7.16;98.70;102122.03;5033430;28;20503;-87
2022/11/11 04:50:38;;;;;;;1.13;1.02;;;;;;;7.16;98.49;102121.13;5039351;28;20121;-76
2022/11/11 04:53:09;;;;;;;3.17;1.15;;;;;;;7.13;98.17;102119.31;5012698;28;20054;-79
2022/11/11 04:58:34;;;;;;;3.33;1.33;;;;;;;7.12;98.77;102125.41;5030255;28;20055;-76
2022/11/11 05:01:01;;;;;;;1.05;1.00;;;;;;;7.14;98.25;102121.09;5010414;28;20551;-78
2022/11/11 05:03:27;;;;;;;2.80;0.90;;;;;;;7.16;97.98;102129.84;5023993;28;20045;-79
2022/11/11 05:08:58;;;;;;;1.05;0.95;;;;;;;7.09;98.04;102122.69;5011321;28;20048;-76
2022/11/11 05:11:34;;;;;;;3.08;1.08;;;;;;;7.04;98.16;102132.97;5013516;28;20045;-76
2022/11/11 05:22:42;;;;;;;2.58;0.93;;;;;;;7.04;97.96;102148.59;5006519;28;20121;-78
2022/11/11 05:25:24;;;;;;;8.38;1.33;;;;;;;7.03;98.21;102151.16;5013822;28;20045;-75
2022/11/11 05:27:53;;;;;;;3.53;1.08;;;;;;;6.99;98.63;102163.22;5019920;28;20037;-76
2022/11/11 05:30:21;;;;;;;0.93;0.88;;;;;;;6.97;98.87;102161.41;5012000;28;20040;-77
2022/11/11 05:32:48;;;;;;;7.38;1.02;;;;;;;6.99;99.06;102159.69;5013394;28;20041;-80
2022/11/11 05:35:16;;;;;;;1.63;0.95;;;;;;;7.03;98.67;102159.84;5017763;28;20069;-76
2022/11/11 05:37:43;;;;;;;6.00;1.77;;;;;;;7.05;98.25;102152.97;5019066;28;20084;-78
2022/11/11 05:40:11;;;;;;;5.32;1.10;;;;;;;7.02;98.45;102147.66;5041093;28;20072;-76
2022/11/11 05:42:42;;;;;;;1.45;1.05;;;;;;;6.95;98.65;102148.34;5011707;28;20049;-76
2022/11/11 05:45:09;;;;;;;5.95;1.48;;;;;;;6.87;99.13;102150.72;5022475;28;20515;-77
2022/11/11 05:47:36;;;;;;;8.40;4.07;;;;;;;6.81;99.85;102149.63;5001042;28;20086;-81
2022/11/11 05:50:03;;;;;;;3.80;1.55;;;;;;;6.77;100.00;102146.91;5015750;28;20403;-76
2022/11/11 05:52:30;;;;;;;2.97;1.42;;;;;;;6.77;100.00;102151.25;5012442;28;20337;-76
2022/11/11 05:54:57;;;;;;;3.95;2.00;;;;;;;6.73;100.00;102157.22;4998270;28;20105;-77
2022/11/11 05:57:23;;;;;;;5.38;1.92;;;;;;;6.72;100.00;102160.63;5014366;28;20504;-76
2022/11/11 05:59:50;;;;;;;3.65;1.35;;;;;;;6.72;100.00;102158.03;5033412;28;20488;-77
2022/11/11 06:02:17;;;;;;;2.80;1.40;;;;;;;6.71;100.00;102151.94;5015973;28;20392;-76
2022/11/11 06:04:46;;;;;;;6.47;1.48;;;;;;;6.69;100.00;102151.00;5015547;28;20392;-75
2022/11/11 06:07:13;;;;;;;3.67;1.30;;;;;;;6.67;100.00;102154.41;5033781;28;20084;-76
2022/11/11 06:09:39;;;;;;;7.68;1.45;;;;;;;6.64;100.00;102146.50;5017483;28;20048;-77
2022/11/11 06:12:06;;;;;;;7.40;2.00;;;;;;;6.64;100.00;102154.31;5037197;28;20508;-76
2022/11/11 06:14:33;;;;;;;8.25;1.45;;;;;;;6.65;100.00;102159.56;5035542;28;20049;-79
2022/11/11 06:16:59;;;;;;;3.05;1.23;;;;;;;6.67;100.00;102157.88;5013382;28;20045;-79
2022/11/11 06:19:26;;;;;;;9.90;3.70;;;;;;;6.66;100.00;102160.44;5025279;28;20477;-76
2022/11/11 06:21:59;;;;;;;8.48;2.90;;;;;;;6.68;100.00;102177.00;5018439;28;20156;-79
2022/11/11 06:24:26;;;;;;;1.90;1.42;;;;;;;6.65;100.00;102171.69;5033449;28;20047;-76
2022/11/11 06:26:55;;;;;;;5.47;1.63;;;;;;;6.68;100.00;102177.00;5035522;28;20171;-78
2022/11/11 06:29:22;;;;;;;5.68;1.30;;;;;;;6.64;100.00;102182.94;5013934;28;20108;-77
2022/11/11 06:31:48;;;;;;;5.13;2.50;;;;;;;6.65;100.00;102179.47;5017374;28;20361;-79
2022/11/11 06:34:15;;;;;;;3.65;1.73;;;;;;;6.61;100.00;102171.59;5020807;28;20100;-76
2022/11/11 06:36:42;;;;;;;2.95;1.17;;;;;;;6.60;100.00;102176.75;5018073;28;20498;-80
2022/11/11 06:39:08;;;;;;;4.05;1.55;;;;;;;6.59;100.00;102181.06;5023335;28;20041;-77
2022/11/11 06:41:35;;;;;;;1.95;1.52;;;;;;;6.59;100.00;102181.06;5017921;28;20915;-77
2022/11/11 06:44:01;;;;;;;2.65;1.80;;;;;;;6.61;100.00;102184.59;5011408;28;20042;-81
2022/11/11 06:46:28;;;;;;;2.08;1.48;;;;;;;6.60;100.00;102175.03;5008358;28;20068;-78
2022/11/11 06:48:55;;;;;;;4.35;1.15;;;;;;;6.59;100.00;102177.56;5009496;28;20041;-76
2022/11/11 06:51:22;;;;;;;4.97;1.40;;;;;;;6.63;100.00;102174.25;5010462;28;20172;-77
2022/11/11 06:53:48;;;;;;;5.00;1.60;;;;;;;6.66;100.00;102170.84;5013683;28;20045;-77
2022/11/11 06:56:15;;;;;;;2.85;1.45;;;;;;;6.69;100.00;102173.53;5012806;28;20426;-78
2022/11/11 06:58:44;;;;;;;1.95;1.17;;;;;;;6.68;100.00;102177.88;5006870;28;20856;-77
2022/11/11 07:01:11;;;;;;;4.97;1.45;;;;;;;6.74;100.00;102184.97;5011508;28;20041;-76
2022/11/11 07:03:37;;;;;;;3.47;1.70;;;;;;;6.79;100.00;102186.00;5013687;28;20140;-75
2022/11/11 07:06:05;;;;;;;5.47;1.70;;;;;;;6.85;100.00;102193.16;5013734;28;20072;-85
2022/11/11 07:08:32;;;;;;;3.47;1.55;;;;;;;6.88;100.00;102182.81;5026314;28;20041;-79
2022/11/11 07:10:59;;;;;;;4.35;2.90;;;;;;;6.87;100.00;102189.75;4996285;28;20052;-77
2022/11/11 07:13:25;;;;;;;6.20;1.50;;;;;;;6.91;100.00;102190.72;5041679;28;20052;-78
2022/11/11 07:15:52;;;;;;;2.25;1.35;;;;;;;6.99;99.63;102204.88;5022985;28;20116;-75
2022/11/11 07:18:18;;;;;;;4.13;1.30;;;;;;;7.06;98.40;102196.38;5014428;28;20396;-75
2022/11/11 07:20:45;;;;;;;3.47;1.02;;;;;;;7.14;97.54;102206.16;5013936;28;20132;-75
2022/11/11 07:23:11;;;;;;;6.18;2.80;;;;;;;7.14;97.32;102209.63;5018684;28;20054;-77
2022/11/11 07:25:38;;;;;;;3.67;1.63;;;;;;;7.16;97.23;102214.88;5017345;28;20373;-76
2022/11/11 07:28:04;;;;;;;4.78;2.22;;;;;;;7.16;97.67;102210.59;5012554;28;20045;-82
2022/11/11 07:30:31;;;;;;;3.22;1.90;;;;;;;7.23;97.38;102206.44;5003092;28;20051;-77
2022/11/11 07:32:57;;;;;;;8.55;2.75;;;;;;;7.28;97.33;102212.66;5003675;28;20093;-78
2022/11/11 07:35:24;;;;;;;3.17;1.20;;;;;;;7.34;96.55;102209.34;4996791;28;20045;-79
2022/11/11 07:37:51;;;;;;;2.78;1.30;;;;;;;7.37;96.54;102202.53;5008811;28;20334;-79
2022/11/11 07:40:19;;;;;;;3.42;1.40;;;;;;;7.44;96.03;102211.38;5015796;28;20053;-78
2022/11/11 07:42:46;;;;;;;4.53;1.08;;;;;;;7.52;95.38;102203.81;5022531;28;20047;-77
2022/11/11 07:45:14;;;;;;;2.00;1.08;;;;;;;7.59;94.96;102204.03;5023870;28;20079;-77
2022/11/11 07:47:44;;;;;;;2.10;1.20;;;;;;;7.64;94.78;102204.16;5020982;28;20049;-77
2022/11/11 07:50:12;;;;;;;5.30;1.13;;;;;;;7.72;94.16;102204.38;5021957;28;20042;-76
2022/11/11 07:52:38;;;;;;;1.98;1.33;;;;;;;7.85;93.35;102203.88;5004288;28;20052;-78
2022/11/11 07:55:07;;;;;;;6.80;2.05;;;;;;;7.96;92.20;102206.75;5029620;28;20502;-75
2022/11/11 07:57:34;;;;;;;5.97;2.15;;;;;;;8.04;91.51;102207.84;5019559;28;20045;-80
2022/11/11 08:00:00;;;;;;;2.97;0.95;;;;;;;8.10;91.38;102214.97;5014475;28;20049;-79
2022/11/11 08:02:27;;;;;;;2.30;1.23;;;;;;;8.12;91.30;102218.47;5015045;28;20045;-78
2022/11/11 08:04:54;;;;;;;2.75;1.42;;;;;;;8.20;90.33;102221.28;5036692;28;20180;-77
2022/11/11 08:07:20;;;;;;;1.58;0.90;;;;;;;8.28;90.13;102227.59;5038935;28;20056;-76
2022/11/11 08:09:46;;;;;;;3.97;1.15;;;;;;;8.37;89.71;102233.06;5033710;28;20045;-79
2022/11/11 08:14:57;;;;;;;2.67;1.20;;;;;;;8.48;88.78;102224.66;5001960;28;20032;-77
2022/11/11 08:17:23;;;;;;;2.20;1.23;;;;;;;8.54;88.17;102230.00;5016226;28;20100;-76
2022/11/11 08:19:50;;;;;;;1.67;1.58;;;;;;;8.61;88.42;102231.94;5034696;28;20416;-78
2022/11/11 08:22:17;;;;;;;3.55;0.93;;;;;;;8.68;87.87;102230.34;5035280;28;20423;-78
2022/11/11 08:24:43;;;;;;;2.45;1.10;;;;;;;8.74;87.78;102228.75;5005100;28;20480;-76
2022/11/11 08:27:10;;;;;;;1.33;1.02;;;;;;;8.81;86.77;102232.41;5037347;28;20050;-76
2022/11/11 08:29:36;;;;;;;1.40;1.00;;;;;;;8.88;86.80;102229.09;5017067;28;20489;-82
2022/11/11 08:32:03;;;;;;;3.65;0.90;;;;;;;8.95;86.07;102232.72;5012287;28;20469;-76
2022/11/11 08:34:29;;;;;;;3.88;1.45;;;;;;;9.02;85.79;102234.66;5024666;28;20083;-76
2022/11/11 08:36:56;;;;;;;6.40;1.23;;;;;;;9.10;85.15;102237.44;5022214;28;20077;-79
2022/11/11 08:39:25;;;;;;;2.28;1.50;;;;;;;9.14;84.68;102234.03;5021298;28;20041;-76
2022/11/11 08:41:51;;;;;;;2.35;1.50;;;;;;;9.17;84.82;102225.41;5020676;28;20404;-76
2022/11/11 08:44:18;;;;;;;3.55;1.40;;;;;;;9.19;84.54;102229.81;5022434;28;20407;-78
2022/11/11 08:46:44;;;;;;;0.88;0.70;;;;;;;9.24;84.81;102232.50;5020230;28;20492;-75
2022/11/11 08:49:12;;;;;;;1.30;1.20;;;;;;;9.30;83.67;102237.00;5023185;28;20739;-77
2022/11/11 08:51:38;;;;;;;0.98;0.90;;;;;;;9.38;83.68;102241.53;5027552;28;20044;-78
2022/11/11 08:54:05;;;;;;;2.67;0.90;;;;;;;9.44;83.35;102249.50;5018521;28;20045;-77
2022/11/11 08:56:32;;;;;;;4.95;1.60;;;;;;;9.51;83.26;102255.75;5025755;28;20096;-78
2022/11/11 08:58:58;;;;;;;3.92;1.48;;;;;;;9.56;83.17;102256.72;5025150;28;20046;-76
2022/11/11 09:01:25;;;;;;;2.33;1.48;;;;;;;9.63;82.93;102262.09;5039470;28;20047;-76
2022/11/11 09:03:51;;;;;;;3.53;1.20;;;;;;;9.71;82.84;102252.66;5013861;28;20048;-80
2022/11/11 09:06:18;;;;;;;1.70;1.60;;;;;;;9.82;82.20;102250.28;5024611;28;20068;-77
2022/11/11 09:08:44;;;;;;;4.95;3.25;;;;;;;9.91;82.15;102256.56;5025409;28;20452;-82
2022/11/11 09:11:12;;;;;;;3.03;1.95;;;;;;;9.98;81.94;102260.16;5021535;28;20541;-76
2022/11/11 09:13:39;;;;;;;1.95;1.20;;;;;;;10.04;81.87;102262.91;5037817;28;20045;-79
2022/11/11 09:16:06;;;;;;;2.88;1.45;;;;;;;10.12;81.80;102255.22;5037114;28;20125;-80
2022/11/11 09:18:34;;;;;;;3.15;1.80;;;;;;;10.21;81.20;102265.84;5035565;28;20046;-78
2022/11/11 09:21:02;;;;;;;2.92;2.13;;;;;;;10.27;81.77;102262.44;4996933;28;20060;-79
2022/11/11 09:23:28;;;;;;;2.35;1.00;;;;;;;10.35;81.40;102265.22;4997191;28;20042;-76
2022/11/11 09:25:56;;;;;;;5.22;1.27;;;;;;;10.41;81.15;102267.97;5023234;28;20052;-78
2022/11/11 09:28:24;;;;;;;2.47;0.90;;;;;;;10.47;80.99;102277.66;5001027;28;20072;-78
2022/11/11 09:30:50;;;;;;;8.80;3.15;;;;;;;10.51;80.91;102274.28;4992807;28;20135;-77
2022/11/11 09:33:18;;;;;;;3.70;1.65;;;;;;;10.57;80.41;102280.50;4985197;28;20053;-81
2022/11/11 09:35:45;;;;;;;1.25;0.80;;;;;;;10.73;79.39;102283.38;5010385;28;20190;-77
2022/11/11 09:38:11;;;;;;;13.30;1.98;;;;;;;10.86;79.23;102282.72;4994101;28;20118;-77
2022/11/11 09:41:03;;;;;;;0.88;0.75;;;;;;;11.06;77.28;102272.53;4998227;28;20061;-80
2022/11/11 09:43:59;;;;;;;0.75;0.70;;;;;;;11.42;75.17;102270.44;5013946;28;20051;-79
2022/11/11 09:46:45;;;;;;;4.85;1.48;;;;;;;11.45;75.37;102280.94;4995096;28;20038;-76
2022/11/11 09:49:43;;;;;;;3.78;0.60;;;;;;;11.66;73.57;102280.34;5012486;28;20073;-79
2022/11/11 09:52:21;;;;;;;4.45;0.60;;;;;;;11.77;73.03;102266.47;4969576;28;20042;-79
2022/11/11 09:55:01;;;;;;;4.80;0.90;;;;;;;11.83;72.75;102277.06;4976654;28;20046;-76
2022/11/11 09:57:57;;;;;;;1.42;0.88;;;;;;;11.83;72.81;102264.81;5015806;28;20069;-77
2022/11/11 10:00:47;;;;;;;3.38;1.27;;;;;;;11.88;72.30;102280.63;5000042;28;20126;-76
2022/11/11 10:03:19;;;;;;;3.10;0.95;;;;;;;11.91;72.42;102284.16;4998024;28;20048;-77
2022/11/11 10:06:09;;;;;;;1.05;0.88;;;;;;;11.95;71.79;102292.06;4990847;28;20459;-77
2022/11/11 10:09:01;;;;;;;2.65;1.00;;;;;;;11.96;71.85;102289.47;4991520;28;20046;-79
2022/11/11 10:12:01;;;;;;;2.65;0.60;;;;;;;12.10;70.39;102288.75;4993489;28;20048;-77
2022/11/11 10:14:37;;;;;;;1.73;1.00;;;;;;;12.13;70.47;102297.53;4987883;28;20049;-77
2022/11/11 10:17:23;;;;;;;1.80;0.50;;;;;;;12.14;70.03;102288.81;5014025;28;20045;-76
2022/11/11 10:20:18;;;;;;;2.03;0.80;;;;;;;12.15;70.56;102293.22;4974628;28;20049;-76
2022/11/11 10:22:48;;;;;;;2.08;0.80;;;;;;;12.22;69.62;102296.78;5002866;28;20046;-75
2022/11/11 10:25:15;;;;;;;3.78;0.60;;;;;;;12.30;69.34;102294.22;5028847;28;20504;-76
2022/11/11 10:27:48;;;;;;;2.63;1.02;;;;;;;12.31;69.27;102286.34;5029621;28;20046;-76
2022/11/11 10:30:23;;;;;;;5.00;1.05;;;;;;;12.37;69.07;102289.06;5028667;28;20061;-79
2022/11/11 10:33:38;;;;;;;3.15;0.73;;;;;;;12.46;68.32;102292.63;5027527;28;20157;-79
2022/11/11 10:36:06;;;;;;;2.13;0.68;;;;;;;12.49;67.91;102295.28;5009402;28;20049;-78
2022/11/11 10:39:04;;;;;;;2.42;0.80;;;;;;;12.52;68.04;102298.81;5023631;28;20083;-80
2022/11/11 10:41:41;;;;;;;3.42;0.95;;;;;;;12.57;67.35;102291.00;5021583;28;20135;-75
2022/11/11 10:44:25;;;;;;;1.30;0.40;;;;;;;12.62;67.31;102291.00;5044911;28;20045;-77
2022/11/11 10:47:08;;;;;;;2.60;0.90;;;;;;;12.63;67.40;102292.78;5028780;28;20030;-78
2022/11/11 10:49:42;;;;;;;2.20;0.88;;;;;;;12.67;67.27;102292.84;5033385;28;20041;-77
2022/11/11 10:52:22;;;;;;;2.38;0.55;;;;;;;12.76;66.62;102294.63;5048487;28;20036;-77
2022/11/11 10:55:09;;;;;;;0.43;0.32;;;;;;;12.80;66.28;102292.91;5024654;28;20045;-81
2022/11/11 10:57:47;;;;;;;0.40;0.28;;;;;;;12.90;65.92;102300.00;5028291;28;20055;-79
2022/11/11 11:00:15;;;;;;;1.38;0.40;;;;;;;12.95;65.67;102292.19;5030974;28;20052;-75
2022/11/11 11:02:53;;;;;;;1.90;0.30;;;;;;;13.02;64.84;102286.97;5048305;28;20041;-76
2022/11/11 11:05:30;;;;;;;3.10;0.57;;;;;;;13.01;65.35;102293.09;5031809;28;20386;-76
2022/11/11 11:08:06;;;;;;;2.22;0.60;;;;;;;13.00;65.77;102290.47;5033157;28;20038;-75
2022/11/11 11:10:40;;;;;;;3.17;0.60;;;;;;;13.01;65.70;102285.22;5032880;28;20067;-77
2022/11/11 11:13:16;;;;;;;0.90;0.47;;;;;;;13.04;65.19;102287.84;5054860;28;20132;-75
2022/11/11 11:15:48;;;;;;;0.95;0.52;;;;;;;13.10;64.53;102294.03;5031868;28;20084;-76
2022/11/11 11:18:18;;;;;;;1.98;0.50;;;;;;;13.13;64.36;102288.78;5030913;28;20431;-76
2022/11/11 11:20:59;;;;;;;2.22;0.40;;;;;;;13.16;64.07;102294.06;5014612;28;20046;-76
2022/11/11 11:23:52;;;;;;;0.50;0.40;;;;;;;13.30;63.23;102294.16;5016982;28;20437;-78
2022/11/11 11:26:18;;;;;;;1.10;1.00;;;;;;;13.36;62.99;102294.19;5014152;28;20077;-75
2022/11/11 11:29:02;;;;;;;0.65;0.65;;;;;;;13.44;61.88;102287.28;5033819;28;20041;-77
2022/11/11 11:31:41;;;;;;;2.88;0.82;;;;;;;13.57;61.51;102296.97;5034482;28;20045;-77
2022/11/11 11:34:08;;;;;;;0.95;0.40;;;;;;;13.68;60.55;102288.25;5029061;28;20048;-78
2022/11/11 11:36:35;;;;;;;1.50;0.30;;;;;;;13.78;60.00;102289.16;5013077;28;20057;-76
2022/11/11 11:39:01;;;;;;;1.48;0.30;;;;;;;13.79;59.53;102291.78;5039981;28;20127;-76
2022/11/11 11:41:43;;;;;;;1.27;0.22;;;;;;;13.87;59.14;102286.56;5040087;28;20504;-76
2022/11/11 11:44:37;;;;;;;2.78;0.40;;;;;;;13.88;59.49;102289.22;5033960;28;20496;-76
2022/11/11 11:47:27;;;;;;;1.88;1.30;;;;;;;13.94;60.18;102292.75;5032805;28;20156;-78
2022/11/11 11:50:33;;;;;;;2.08;1.05;;;;;;;13.88;60.57;102280.41;5032439;28;20128;-80
2022/11/11 11:53:03;;;;;;;0.50;0.32;;;;;;;13.92;60.44;102287.44;5044353;28;20037;-76
2022/11/11 11:55:36;;;;;;;0.43;0.32;;;;;;;13.94;60.76;102287.47;5023190;28;20076;-78
2022/11/11 11:58:35;;;;;;;0.85;0.25;;;;;;;13.99;60.53;102291.88;5032376;28;20842;-76
2022/11/11 12:01:17;;;;;;;2.05;0.68;;;;;;;14.04;60.15;102281.34;5043879;28;20480;-76
2022/11/11 12:04:09;;;;;;;1.88;0.68;;;;;;;14.07;59.92;102289.28;5026570;28;20044;-78
2022/11/11 12:06:53;;;;;;;3.75;0.73;;;;;;;14.22;59.18;102288.41;5030207;28;20533;-78
2022/11/11 12:09:46;;;;;;;;;;;;;;;14.31;57.93;102287.56;5033064;28;20056;-77
2022/11/11 12:12:48;;;;;;;0.25;0.25;;;;;;;14.47;57.07;102288.44;5024231;28;20293;-76
2022/11/11 12:15:30;;;;;;;1.13;0.30;;;;;;;14.58;55.92;102299.03;5033814;28;20053;-80
2022/11/11 12:18:34;;;;;;;0.30;0.30;;;;;;;14.58;56.16;102289.34;5032869;28;20044;-75
2022/11/11 12:21:14;;;;;;;1.17;0.30;;;;;;;14.72;55.50;102289.41;5032361;28;20045;-75
2022/11/11 12:23:58;;;;;;;4.90;0.20;;;;;;;14.79;55.09;102285.84;5013508;28;20157;-77
2022/11/11 12:26:37;;;;;;;;;;;;;;;14.83;54.79;102286.75;5030485;28;20072;-77
2022/11/11 12:29:32;;;;;;;1.10;0.20;;;;;;;14.88;54.42;102280.56;5028624;28;19931;-77
2022/11/11 12:32:27;;;;;;;0.75;0.50;;;;;;;14.99;54.05;102293.78;5031403;28;20038;-77
2022/11/11 12:35:33;;;;;;;0.63;0.28;;;;;;;14.99;54.42;102288.50;5012635;28;20392;-76
2022/11/11 12:38:34;;;;;;;0.65;0.32;;;;;;;14.96;54.64;102285.84;5033132;28;20069;-77
2022/11/11 12:41:27;;;;;;;1.00;0.50;;;;;;;15.10;53.86;102284.97;5016513;28;20045;-76
2022/11/11 12:44:08;;;;;;;1.77;0.40;;;;;;;15.08;54.54;102284.09;5028972;28;20036;-75
2022/11/11 12:47:07;;;;;;;0.95;0.13;;;;;;;15.11;53.67;102286.69;5040883;28;20466;-77
2022/11/11 12:50:08;;;;;;;2.53;0.30;;;;;;;15.16;53.41;102285.84;5030185;28;20044;-77
2022/11/11 12:53:04;;;;;;;0.68;0.28;;;;;;;15.12;53.98;102284.09;5035561;28;20128;-79
2022/11/11 12:55:54;;;;;;;0.25;0.20;;;;;;;15.03;54.27;102284.97;5032021;28;20049;-75
2022/11/11 12:58:51;;;;;;;2.17;0.13;;;;;;;15.03;53.64;102286.72;5025308;28;20447;-77
2022/11/11 13:01:41;;;;;;;0.55;0.25;;;;;;;14.99;54.51;102287.59;5025676;28;20045;-76
2022/11/11 13:04:32;;;;;;;2.58;0.20;;;;;;;14.98;54.36;102299.03;5027854;28;20050;-76